createdAt,value
2023-04-17T00:00:58.057Z,93.01
2023-04-17T00:03:24.482Z,93.00
2023-04-17T00:05:53.868Z,93.53
2023-04-17T00:08:20.432Z,93.09
2023-04-17T00:10:51.202Z,93.57
2023-04-17T00:13:26.859Z,93.79
2023-04-17T00:15:53.315Z,93.83
2023-04-17T00:18:19.734Z,93.40
2023-04-17T00:20:46.053Z,93.23
2023-04-17T00:23:12.613Z,93.15
2023-04-17T00:25:38.989Z,93.13
2023-04-17T00:28:05.632Z,93.29
2023-04-17T00:30:31.956Z,93.39
2023-04-17T00:32:58.380Z,93.24
2023-04-17T00:35:24.748Z,93.26
2023-04-17T00:37:51.110Z,92.67
2023-04-17T00:40:17.553Z,92.80
2023-04-17T00:42:45.466Z,92.27
2023-04-17T00:45:11.925Z,92.57
2023-04-17T00:47:39.169Z,92.66
2023-04-17T00:50:06.295Z,93.04
2023-04-17T00:52:32.692Z,92.24
2023-04-17T00:55:00.275Z,91.98
2023-04-17T00:57:26.817Z,91.80
2023-04-17T00:59:54.221Z,92.68
2023-04-17T01:02:20.811Z,91.90
2023-04-17T01:04:47.228Z,91.91
2023-04-17T01:07:13.606Z,92.46
2023-04-17T01:09:40.111Z,92.15
2023-04-17T01:12:24.088Z,91.89
2023-04-17T01:14:54.320Z,92.00
2023-04-17T01:17:21.820Z,91.69
2023-04-17T01:19:49.390Z,91.72
2023-04-17T01:22:16.497Z,92.17
2023-04-17T01:24:43.166Z,92.38
2023-04-17T01:27:09.509Z,92.28
2023-04-17T01:29:35.924Z,92.40
2023-04-17T01:32:02.335Z,92.15
2023-04-17T01:34:28.664Z,91.67
2023-04-17T01:36:55.032Z,92.01
2023-04-17T01:39:21.658Z,92.16
2023-04-17T01:41:48.091Z,91.53
2023-04-17T01:44:14.512Z,91.56
2023-04-17T01:46:40.999Z,92.39
2023-04-17T01:49:07.437Z,92.24
2023-04-17T01:51:33.860Z,91.75
2023-04-17T01:54:00.220Z,91.85
2023-04-17T01:56:27.141Z,92.39
2023-04-17T01:58:54.110Z,92.55
2023-04-17T02:01:20.600Z,91.90
2023-04-17T02:03:47.258Z,91.75
2023-04-17T02:06:13.656Z,91.89
2023-04-17T02:08:39.976Z,92.21
2023-04-17T02:11:06.539Z,91.94
2023-04-17T02:13:32.983Z,91.46
2023-04-17T02:15:59.423Z,91.77
2023-04-17T02:18:26.479Z,91.86
2023-04-17T02:20:52.865Z,91.92
2023-04-17T02:23:19.338Z,91.67
2023-04-17T02:25:45.777Z,92.07
2023-04-17T02:28:12.258Z,91.96
2023-04-17T02:30:38.602Z,91.95
2023-04-17T02:33:05.232Z,92.31
2023-04-17T02:35:32.062Z,91.77
2023-04-17T02:37:58.464Z,91.56
2023-04-17T02:40:24.860Z,91.96
2023-04-17T02:42:51.173Z,91.71
2023-04-17T02:45:17.563Z,92.49
2023-04-17T02:47:44.001Z,92.29
2023-04-17T02:50:11.077Z,92.08
2023-04-17T02:52:37.458Z,92.59
2023-04-17T02:55:04.343Z,91.93
2023-04-17T02:57:30.720Z,92.06
2023-04-17T02:59:57.111Z,92.60
2023-04-17T03:02:24.101Z,92.37
2023-04-17T03:04:51.777Z,93.03
2023-04-17T03:07:19.857Z,92.84
2023-04-17T03:09:47.558Z,92.92
2023-04-17T03:12:15.015Z,92.56
2023-04-17T03:14:42.371Z,92.84
2023-04-17T03:17:09.851Z,93.22
2023-04-17T03:19:36.207Z,93.43
2023-04-17T03:22:03.524Z,92.83
2023-04-17T03:24:30.332Z,93.12
2023-04-17T03:26:57.498Z,93.39
2023-04-17T03:29:24.085Z,93.44
2023-04-17T03:31:50.647Z,93.76
2023-04-17T03:34:21.692Z,93.15
2023-04-17T03:36:48.296Z,92.83
2023-04-17T03:39:14.909Z,93.74
2023-04-17T03:41:41.420Z,92.92
2023-04-17T03:44:09.088Z,93.65
2023-04-17T03:46:35.569Z,93.23
2023-04-17T03:49:01.961Z,93.62
2023-04-17T03:51:28.531Z,93.67
2023-04-17T03:53:54.894Z,93.45
2023-04-17T03:56:22.043Z,93.16
2023-04-17T03:58:48.567Z,93.47
2023-04-17T04:01:15.554Z,93.22
2023-04-17T04:03:42.196Z,93.62
2023-04-17T04:06:08.799Z,93.68
2023-04-17T04:08:35.126Z,93.48
2023-04-17T04:11:03.069Z,92.84
2023-04-17T04:13:29.428Z,93.77
2023-04-17T04:15:55.770Z,93.36
2023-04-17T04:18:22.170Z,93.40
2023-04-17T04:20:48.562Z,93.42
2023-04-17T04:23:16.617Z,93.60
2023-04-17T04:25:43.577Z,93.37
2023-04-17T04:28:10.593Z,94.22
2023-04-17T04:30:38.612Z,93.74
2023-04-17T04:33:05.790Z,94.23
2023-04-17T04:35:32.413Z,93.66
2023-04-17T04:38:02.362Z,94.19
2023-04-17T04:40:30.648Z,94.07
2023-04-17T04:42:57.143Z,94.00
2023-04-17T04:45:23.613Z,94.34
2023-04-17T04:47:49.959Z,93.76
2023-04-17T04:50:16.876Z,93.26
2023-04-17T04:52:43.274Z,94.36
2023-04-17T04:55:09.695Z,93.65
2023-04-17T04:57:36.348Z,93.50
2023-04-17T05:00:06.310Z,93.81
2023-04-17T05:02:32.739Z,93.81
2023-04-17T05:04:59.279Z,94.16
2023-04-17T05:07:25.913Z,93.84
2023-04-17T05:09:52.276Z,94.17
2023-04-17T05:12:18.653Z,93.93
2023-04-17T05:14:45.255Z,94.11
2023-04-17T05:17:11.776Z,93.90
2023-04-17T05:19:38.122Z,93.71
2023-04-17T05:22:04.602Z,93.76
2023-04-17T05:24:31.080Z,94.55
2023-04-17T05:26:58.128Z,94.00
2023-04-17T05:29:25.250Z,94.01
2023-04-17T05:31:51.725Z,94.07
2023-04-17T05:34:18.167Z,93.44
2023-04-17T05:36:44.471Z,94.27
2023-04-17T05:39:11.034Z,93.58
2023-04-17T05:41:37.478Z,94.09
2023-04-17T05:44:03.805Z,93.80
2023-04-17T05:46:30.165Z,93.98
2023-04-17T05:48:56.667Z,93.33
2023-04-17T05:51:23.183Z,93.25
2023-04-17T05:53:49.527Z,93.81
2023-04-17T05:56:16.216Z,93.60
2023-04-17T05:58:42.796Z,93.31
2023-04-17T06:01:10.200Z,94.06
2023-04-17T06:03:37.726Z,93.90
2023-04-17T06:06:04.314Z,93.34
2023-04-17T06:08:30.748Z,94.11
2023-04-17T06:10:57.206Z,93.62
2023-04-17T06:13:24.673Z,94.06
2023-04-17T06:15:51.463Z,93.49
2023-04-17T06:18:18.056Z,94.33
2023-04-17T06:20:45.504Z,94.43
2023-04-17T06:23:11.987Z,93.78
2023-04-17T06:25:38.324Z,94.47
2023-04-17T06:28:05.045Z,93.90
2023-04-17T06:30:31.414Z,94.00
2023-04-17T06:32:57.818Z,93.96
2023-04-17T06:35:24.332Z,94.06
2023-04-17T06:37:50.774Z,93.73
2023-04-17T06:40:17.273Z,94.23
2023-04-17T06:42:43.603Z,94.53
2023-04-17T06:45:10.414Z,94.24
2023-04-17T06:47:36.906Z,94.60
2023-04-17T06:50:03.546Z,94.05
2023-04-17T06:52:29.879Z,94.59
2023-04-17T06:54:56.357Z,94.49
2023-04-17T06:57:22.789Z,94.04
2023-04-17T06:59:49.133Z,94.68
2023-04-17T07:02:15.682Z,94.74
2023-04-17T07:04:42.374Z,93.60
2023-04-17T07:07:09.068Z,93.77
2023-04-17T07:09:35.446Z,92.77
2023-04-17T07:12:03.554Z,92.53
2023-04-17T07:14:29.926Z,91.88
2023-04-17T07:16:56.236Z,92.29
2023-04-17T07:19:22.629Z,91.82
2023-04-17T07:21:49.013Z,91.35
2023-04-17T07:24:15.509Z,92.46
2023-04-17T07:26:43.187Z,92.03
2023-04-17T07:29:09.657Z,91.76
2023-04-17T07:31:36.420Z,91.88
2023-04-17T07:34:02.852Z,92.00
2023-04-17T07:36:29.828Z,91.46
2023-04-17T07:38:56.217Z,91.19
2023-04-17T07:41:22.749Z,91.99
2023-04-17T07:43:49.343Z,90.83
2023-04-17T07:46:15.897Z,91.09
2023-04-17T07:48:42.296Z,90.66
2023-04-17T07:51:08.720Z,90.38
2023-04-17T07:53:37.120Z,90.92
2023-04-17T07:56:03.739Z,90.25
2023-04-17T07:58:30.065Z,91.34
2023-04-17T08:00:56.469Z,90.63
2023-04-17T08:03:24.264Z,90.20
2023-04-17T08:05:51.997Z,90.68
2023-04-17T08:08:19.869Z,89.82
2023-04-17T08:10:46.544Z,89.64
2023-04-17T08:13:12.998Z,88.97
2023-04-17T08:15:40.583Z,89.34
2023-04-17T08:18:08.012Z,88.35
2023-04-17T08:20:34.393Z,87.89
2023-04-17T08:23:00.890Z,88.33
2023-04-17T08:25:27.765Z,88.27
2023-04-17T08:27:54.230Z,87.80
2023-04-17T08:30:20.714Z,87.52
2023-04-17T08:32:48.594Z,86.85
2023-04-17T08:35:17.074Z,86.78
2023-04-17T08:37:47.167Z,86.89
2023-04-17T08:40:14.631Z,86.88
2023-04-17T08:42:42.109Z,86.65
2023-04-17T08:45:11.466Z,86.76
2023-04-17T08:47:42.823Z,85.86
2023-04-17T08:50:13.304Z,84.45
2023-04-17T08:52:44.669Z,84.62
2023-04-17T08:55:13.985Z,83.37
2023-04-17T08:57:56.356Z,82.40
2023-04-17T09:00:30.932Z,79.64
2023-04-17T09:02:59.072Z,79.09
2023-04-17T09:05:30.460Z,79.41
2023-04-17T09:08:07.869Z,77.59
2023-04-17T09:10:38.657Z,74.21
2023-04-17T09:13:05.425Z,73.52
2023-04-17T09:15:33.541Z,74.55
2023-04-17T09:18:00.106Z,74.76
2023-04-17T09:20:27.497Z,75.27
2023-04-17T09:23:00.204Z,75.46
2023-04-17T09:25:28.054Z,76.03
2023-04-17T09:28:01.465Z,77.04
2023-04-17T09:30:27.870Z,75.94
2023-04-17T09:33:04.896Z,76.70
2023-04-17T09:35:31.509Z,76.68
2023-04-17T09:37:59.441Z,77.08
2023-04-17T09:40:35.921Z,77.18
2023-04-17T09:43:04.500Z,77.22
2023-04-17T09:45:40.116Z,76.70
2023-04-17T09:48:08.865Z,76.15
2023-04-17T09:50:36.624Z,76.03
2023-04-17T09:53:05.371Z,75.31
2023-04-17T09:55:33.290Z,75.67
2023-04-17T09:58:03.411Z,74.27
2023-04-17T10:00:30.292Z,74.51
2023-04-17T10:02:58.895Z,74.96
2023-04-17T10:05:28.748Z,74.18
2023-04-17T10:07:56.103Z,73.81
2023-04-17T10:10:24.509Z,73.07
2023-04-17T10:12:54.174Z,72.42
2023-04-17T10:15:21.944Z,72.67
2023-04-17T10:17:49.796Z,72.46
2023-04-17T10:20:22.911Z,73.30
2023-04-17T10:22:54.573Z,73.45
2023-04-17T10:25:23.782Z,72.06
2023-04-17T10:28:01.313Z,70.66
2023-04-17T10:30:52.272Z,70.45
2023-04-17T10:33:20.652Z,66.37
2023-04-17T10:35:47.870Z,66.22
2023-04-17T10:38:16.118Z,64.54
2023-04-17T10:40:43.811Z,64.10
2023-04-17T10:43:11.069Z,64.51
2023-04-17T10:45:55.516Z,63.26
2023-04-17T10:48:35.007Z,62.77
2023-04-17T10:51:20.507Z,60.48
2023-04-17T10:53:48.290Z,60.06
2023-04-17T10:56:23.424Z,60.40
2023-04-17T10:59:03.194Z,58.42
2023-04-17T11:01:32.133Z,58.23
2023-04-17T11:04:02.009Z,57.15
2023-04-17T11:06:31.485Z,56.67
2023-04-17T11:08:59.566Z,54.54
2023-04-17T11:11:43.018Z,56.53
2023-04-17T11:14:22.407Z,55.61
2023-04-17T11:16:50.831Z,53.60
2023-04-17T11:19:23.100Z,56.30
2023-04-17T11:21:53.331Z,55.02
2023-04-17T11:24:24.133Z,55.47
2023-04-17T11:26:51.079Z,54.33
2023-04-17T11:29:19.847Z,51.70
2023-04-17T11:31:47.535Z,51.99
2023-04-17T11:34:15.586Z,51.23
2023-04-17T11:36:56.070Z,54.13
2023-04-17T11:39:23.340Z,54.07
2023-04-17T11:41:51.061Z,53.17
2023-04-17T11:44:19.984Z,49.26
2023-04-17T11:46:58.514Z,50.10
2023-04-17T11:49:30.096Z,49.35
2023-04-17T11:51:59.620Z,50.79
2023-04-17T11:54:30.582Z,49.79
2023-04-17T11:57:02.409Z,51.54
2023-04-17T11:59:34.305Z,51.57
2023-04-17T12:02:01.892Z,52.66
2023-04-17T12:04:29.940Z,50.25
2023-04-17T12:06:57.983Z,53.00
2023-04-17T12:09:31.067Z,47.79
2023-04-17T12:11:58.366Z,48.37
2023-04-17T12:14:26.440Z,47.87
2023-04-17T12:16:53.164Z,46.25
2023-04-17T12:19:22.436Z,47.76
2023-04-17T12:21:48.821Z,48.23
2023-04-17T12:24:18.023Z,48.52
2023-04-17T12:26:48.616Z,49.96
2023-04-17T12:29:15.792Z,49.02
2023-04-17T12:31:42.687Z,51.18
2023-04-17T12:34:09.096Z,51.19
2023-04-17T12:36:35.960Z,48.67
2023-04-17T12:39:02.532Z,49.13
2023-04-17T12:41:30.061Z,48.91
2023-04-17T12:44:00.001Z,50.60
2023-04-17T12:46:26.393Z,50.79
2023-04-17T12:48:58.335Z,56.76
2023-04-17T12:51:27.844Z,53.23
2023-04-17T12:53:55.466Z,50.10
2023-04-17T12:56:21.953Z,49.58
2023-04-17T12:58:48.356Z,50.23
2023-04-17T13:01:14.732Z,48.34
2023-04-17T13:03:41.560Z,48.99
2023-04-17T13:06:08.269Z,49.85
2023-04-17T13:08:34.594Z,51.62
2023-04-17T13:11:03.592Z,51.91
2023-04-17T13:13:30.265Z,48.48
2023-04-17T13:15:56.714Z,49.45
2023-04-17T13:18:23.058Z,51.51
2023-04-17T13:20:49.513Z,48.91
2023-04-17T13:23:15.849Z,47.46
2023-04-17T13:25:42.348Z,45.07
2023-04-17T13:28:08.780Z,45.26
2023-04-17T13:30:37.054Z,45.28
2023-04-17T13:33:03.678Z,45.63
2023-04-17T13:35:30.170Z,42.36
2023-04-17T13:38:00.768Z,41.65
2023-04-17T13:40:27.274Z,42.90
2023-04-17T13:42:53.654Z,41.39
2023-04-17T13:45:20.112Z,42.88
2023-04-17T13:47:46.699Z,44.27
2023-04-17T13:50:13.157Z,45.87
2023-04-17T13:52:39.549Z,50.64
2023-04-17T13:55:11.198Z,47.10
2023-04-17T13:57:37.965Z,44.56
2023-04-17T14:00:04.843Z,43.31
2023-04-17T14:02:31.440Z,42.40
2023-04-17T14:04:58.069Z,40.67
2023-04-17T14:07:24.550Z,39.08
2023-04-17T14:09:51.100Z,41.99
2023-04-17T14:12:20.737Z,44.15
2023-04-17T14:14:47.290Z,45.19
2023-04-17T14:17:13.719Z,45.87
2023-04-17T14:19:41.142Z,48.88
2023-04-17T14:22:07.569Z,49.45
2023-04-17T14:24:34.123Z,49.87
2023-04-17T14:27:01.683Z,49.86
2023-04-17T14:29:28.333Z,47.00
2023-04-17T14:31:54.970Z,47.61
2023-04-17T14:34:21.527Z,46.32
2023-04-17T14:36:48.640Z,44.38
2023-04-17T14:39:15.163Z,44.11
2023-04-17T14:41:41.881Z,40.36
2023-04-17T14:44:08.426Z,40.86
2023-04-17T14:46:34.929Z,39.20
2023-04-17T14:49:01.797Z,40.36
2023-04-17T14:51:28.445Z,39.86
2023-04-17T14:53:54.997Z,40.54
2023-04-17T14:56:21.541Z,45.35
2023-04-17T14:58:48.432Z,47.08
2023-04-17T15:01:14.792Z,49.86
2023-04-17T15:03:42.551Z,51.19
2023-04-17T15:06:10.296Z,52.59
2023-04-17T15:08:36.666Z,53.33
2023-04-17T15:11:03.083Z,56.96
2023-04-17T15:13:29.494Z,57.32
2023-04-17T15:15:56.001Z,54.92
2023-04-17T15:18:22.519Z,58.36
2023-04-17T15:20:48.936Z,59.26
2023-04-17T15:23:17.432Z,60.18
2023-04-17T15:25:43.813Z,61.25
2023-04-17T15:28:10.338Z,61.67
2023-04-17T15:30:36.840Z,61.81
2023-04-17T15:33:03.542Z,60.06
2023-04-17T15:35:29.949Z,56.24
2023-04-17T15:37:56.344Z,53.82
2023-04-17T15:40:22.685Z,51.76
2023-04-17T15:42:49.061Z,51.04
2023-04-17T15:45:15.431Z,49.65
2023-04-17T15:47:41.791Z,49.52
2023-04-17T15:50:08.690Z,49.68
2023-04-17T15:52:35.053Z,51.31
2023-04-17T15:55:01.485Z,54.27
2023-04-17T15:57:27.874Z,55.95
2023-04-17T15:59:54.257Z,54.85
2023-04-17T16:02:21.073Z,55.30
2023-04-17T16:04:47.759Z,52.97
2023-04-17T16:07:15.467Z,51.58
2023-04-17T16:09:44.217Z,48.58
2023-04-17T16:12:10.619Z,47.75
2023-04-17T16:14:37.619Z,51.24
2023-04-17T16:17:04.514Z,54.18
2023-04-17T16:19:31.152Z,56.56
2023-04-17T16:21:58.639Z,56.69
2023-04-17T16:24:25.828Z,59.27
2023-04-17T16:26:57.470Z,59.50
2023-04-17T16:29:27.757Z,60.47
2023-04-17T16:31:54.813Z,59.89
2023-04-17T16:34:21.243Z,61.17
2023-04-17T16:36:48.501Z,61.04
2023-04-17T16:39:15.000Z,60.48
2023-04-17T16:41:41.855Z,60.65
2023-04-17T16:44:08.245Z,60.86
2023-04-17T16:46:55.218Z,60.50
2023-04-17T16:49:21.752Z,61.67
2023-04-17T16:51:48.149Z,60.82
2023-04-17T16:54:14.652Z,60.83
2023-04-17T16:56:41.896Z,61.11
2023-04-17T16:59:08.470Z,61.84
2023-04-17T17:01:34.912Z,62.28
2023-04-17T17:04:01.467Z,63.28
2023-04-17T17:06:27.901Z,63.19
2023-04-17T17:08:55.214Z,63.94
2023-04-17T17:11:22.020Z,64.43
2023-04-17T17:13:49.448Z,63.79
2023-04-17T17:16:17.368Z,64.27
2023-04-17T17:18:44.439Z,64.40
2023-04-17T17:21:10.886Z,65.04
2023-04-17T17:23:38.039Z,64.04
2023-04-17T17:26:05.048Z,65.11
2023-04-17T17:28:31.450Z,66.03
2023-04-17T17:31:07.465Z,66.35
2023-04-17T17:33:35.132Z,66.45
2023-04-17T17:36:02.903Z,66.20
2023-04-17T17:38:30.512Z,66.42
2023-04-17T17:40:56.899Z,66.25
2023-04-17T17:43:23.440Z,67.13
2023-04-17T17:45:50.131Z,66.46
2023-04-17T17:48:18.064Z,65.77
2023-04-17T17:50:44.826Z,66.58
2023-04-17T17:53:11.747Z,65.65
2023-04-17T17:55:38.573Z,66.13
2023-04-17T17:58:06.681Z,66.39
2023-04-17T18:00:33.919Z,67.03
2023-04-17T18:03:01.603Z,67.00
2023-04-17T18:05:28.157Z,67.85
2023-04-17T18:07:54.690Z,67.61
2023-04-17T18:10:21.035Z,67.82
2023-04-17T18:12:47.349Z,68.69
2023-04-17T18:15:13.721Z,68.74
2023-04-17T18:17:40.135Z,68.88
2023-04-17T18:20:07.367Z,69.71
2023-04-17T18:22:33.861Z,68.80
2023-04-17T18:25:00.212Z,69.23
2023-04-17T18:27:26.635Z,69.61
2023-04-17T18:29:52.995Z,70.37
2023-04-17T18:32:19.430Z,70.18
2023-04-17T18:34:49.128Z,70.68
2023-04-17T18:37:17.875Z,70.41
2023-04-17T18:39:44.516Z,71.06
2023-04-17T18:42:10.965Z,72.28
2023-04-17T18:44:37.348Z,71.72
2023-04-17T18:47:03.858Z,72.51
2023-04-17T18:49:30.361Z,73.05
2023-04-17T18:51:56.778Z,74.16
2023-04-17T18:54:24.113Z,73.62
2023-04-17T18:56:50.528Z,73.96
2023-04-17T18:59:16.902Z,73.77
2023-04-17T19:01:43.276Z,74.08
2023-04-17T19:04:09.654Z,74.66
2023-04-17T19:06:35.981Z,74.41
2023-04-17T19:09:02.418Z,74.70
2023-04-17T19:11:28.983Z,74.41
2023-04-17T19:13:55.413Z,74.92
2023-04-17T19:16:21.864Z,75.24
2023-04-17T19:18:48.634Z,75.51
2023-04-17T19:21:17.928Z,75.65
2023-04-17T19:23:44.363Z,76.04
2023-04-17T19:26:10.953Z,76.05
2023-04-17T19:28:37.315Z,75.91
2023-04-17T19:31:03.706Z,76.13
2023-04-17T19:33:31.771Z,75.92
2023-04-17T19:35:58.308Z,76.14
2023-04-17T19:38:25.916Z,76.33
2023-04-17T19:41:20.622Z,75.25
2023-04-17T19:43:49.470Z,75.03
2023-04-17T19:46:16.085Z,75.12
2023-04-17T19:48:44.742Z,74.90
2023-04-17T19:51:12.585Z,74.78
2023-04-17T19:53:40.365Z,74.81
2023-04-17T19:56:08.569Z,74.74
2023-04-17T19:58:35.877Z,74.97
2023-04-17T20:01:02.875Z,75.56
2023-04-17T20:03:30.611Z,75.50
2023-04-17T20:05:58.049Z,75.29
2023-04-17T20:08:25.261Z,75.77
2023-04-17T20:10:51.661Z,76.13
2023-04-17T20:13:17.966Z,75.78
2023-04-17T20:15:44.284Z,75.81
2023-04-17T20:18:11.404Z,75.76
2023-04-17T20:20:39.030Z,75.80
2023-04-17T20:23:06.043Z,76.02
2023-04-17T20:25:32.541Z,75.98
2023-04-17T20:27:59.184Z,76.32
2023-04-17T20:30:25.640Z,75.87
2023-04-17T20:32:52.158Z,76.22
2023-04-17T20:35:20.857Z,75.97
2023-04-17T20:37:47.376Z,76.47
2023-04-17T20:40:14.217Z,75.97
2023-04-17T20:42:41.991Z,76.96
2023-04-17T20:45:09.690Z,77.08
2023-04-17T20:47:37.468Z,76.16
2023-04-17T20:50:04.528Z,75.82
2023-04-17T20:52:30.896Z,77.00
2023-04-17T20:54:57.433Z,76.30
2023-04-17T20:57:24.027Z,76.80
2023-04-17T20:59:50.529Z,76.60
2023-04-17T21:02:17.202Z,76.70
2023-04-17T21:04:44.195Z,76.54
2023-04-17T21:07:10.589Z,76.23
2023-04-17T21:09:36.951Z,76.98
2023-04-17T21:12:03.447Z,77.32
2023-04-17T21:14:30.416Z,76.76
2023-04-17T21:16:58.520Z,76.98
2023-04-17T21:19:28.043Z,77.64
2023-04-17T21:21:54.957Z,77.91
2023-04-17T21:24:21.845Z,77.18
2023-04-17T21:26:48.237Z,78.21
2023-04-17T21:29:14.787Z,78.21
2023-04-17T21:31:41.982Z,78.52
2023-04-17T21:34:08.416Z,78.94
2023-04-17T21:36:34.736Z,78.50
2023-04-17T21:39:01.148Z,78.88
2023-04-17T21:41:27.494Z,78.81
2023-04-17T21:43:54.425Z,79.40
2023-04-17T21:46:20.845Z,79.17
2023-04-17T21:48:47.311Z,79.26
2023-04-17T21:51:14.087Z,79.46
2023-04-17T21:53:40.493Z,80.61
2023-04-17T21:56:08.238Z,80.17
2023-04-17T21:58:34.544Z,78.99
2023-04-17T22:01:01.045Z,79.82
2023-04-17T22:03:27.618Z,80.73
2023-04-17T22:05:56.239Z,81.36
2023-04-17T22:08:23.181Z,81.34
2023-04-17T22:10:49.832Z,80.68
2023-04-17T22:13:16.209Z,80.95
2023-04-17T22:15:43.975Z,81.86
2023-04-17T22:18:10.413Z,81.55
2023-04-17T22:20:55.191Z,81.87
2023-04-17T22:23:39.984Z,82.93
2023-04-17T22:26:06.304Z,82.43
2023-04-17T22:29:10.609Z,82.43
2023-04-17T22:31:56.026Z,83.41
2023-04-17T22:34:22.460Z,83.29
2023-04-17T22:37:26.331Z,82.67
2023-04-17T22:39:52.663Z,83.47
2023-04-17T22:43:15.547Z,83.06
2023-04-17T22:46:00.460Z,83.74
2023-04-17T22:49:04.414Z,83.70
2023-04-17T22:51:49.491Z,84.27
2023-04-17T22:55:12.647Z,83.41
2023-04-17T22:57:57.569Z,84.13
2023-04-17T23:01:20.420Z,83.78
2023-04-17T23:04:05.482Z,83.91
2023-04-17T23:06:50.822Z,83.71
2023-04-17T23:09:17.279Z,83.75
2023-04-17T23:11:43.636Z,84.95
2023-04-17T23:14:11.321Z,83.95
2023-04-17T23:16:37.939Z,84.13
2023-04-17T23:19:04.721Z,84.67
2023-04-17T23:21:31.275Z,84.50
2023-04-17T23:23:57.642Z,85.06
2023-04-17T23:26:25.356Z,84.76
2023-04-17T23:28:51.667Z,84.54
2023-04-17T23:31:18.030Z,84.34
2023-04-17T23:33:44.398Z,84.85
2023-04-17T23:36:11.317Z,84.73
2023-04-17T23:38:37.896Z,84.85
2023-04-17T23:41:04.248Z,84.59
2023-04-17T23:43:30.606Z,84.68
2023-04-17T23:45:57.670Z,84.79
2023-04-17T23:48:24.109Z,83.96
2023-04-17T23:50:50.770Z,85.26
2023-04-17T23:53:17.206Z,84.20
2023-04-17T23:55:43.601Z,83.56
2023-04-17T23:58:09.941Z,83.47
